Oceanis — SVBC9 — position and weather

sailwx.info

Track history (hours):
 
Tides and Currents Weather Stations Pressure Air Temp Water Temp Dewpoint Dewpoint Depression Visibility Wind Speed Wind Dir Waves Ship Positions

Oceanis

Last reported at 2015-Jul-05 02:33 UTC. Time now 2015-Jul-05 02:38 UTC.
Position N 33°42' W 118°10'.

Length 330 m; draft 16.1 m.

Type: Tanker. MMSI: 241089000.

Date/timePositionNaut miles runAvg speedWind from/ knotsBaromVisibWave heightAir tempDewpointWater temp
2015-Jul-05 02:33N 33°42' W 118°10'3 3.3
2015-Jul-05 01:32N 33°41' W 118°06'0 0.1
2015-Jul-05 00:32N 33°41' W 118°06'0 0.0
2015-Jul-04 23:32N 33°41' W 118°06'0 0.0
2015-Jul-04 22:32N 33°41' W 118°06'0 0.0
2015-Jul-04 21:32N 33°41' W 118°06'0 0.0
2015-Jul-04 20:32N 33°41' W 118°06'0 0.1
2015-Jul-04 19:29N 33°41' W 118°06'0 0.1
2015-Jul-04 18:32N 33°41' W 118°06'0 0.1
2015-Jul-04 17:32N 33°41' W 118°06'0 0.1
2015-Jul-04 16:32N 33°41' W 118°06'0 0.1
2015-Jul-04 15:32N 33°41' W 118°06'0 0.3
2015-Jul-04 14:34N 33°41' W 118°07'4 3.5
2015-Jul-04 13:34N 33°37' W 118°08'6 6.0
2015-Jul-04 12:34N 33°31' W 118°08'1211.7
2015-Jul-04 11:33N 33°20' W 118°03'1211.5
2015-Jul-04 10:33N 33°09' W 117°59'1211.6
2015-Jul-04 09:34N 32°58' W 117°55'1111.3
2015-Jul-04 08:34N 32°47' W 117°52'1211.8
2015-Jul-04 07:34N 32°36' W 117°49'1212.0
2015-Jul-04 06:33N 32°24' W 117°50'1111.5
2015-Jul-04 05:34N 32°12' W 117°51'1111.3
2015-Jul-04 04:33N 32°01' W 117°52'1110.9
2015-Jul-04 03:34N 31°50' W 117°53'1110.8
2015-Jul-04 02:33N 31°39' W 117°54'1111.1
2015-Jul-04 01:33N 31°28' W 117°55'1110.6
2015-Jul-04 00:34N 31°18' W 117°54'3 3.0
2015-Jul-03 23:33N 31°18' W 117°50'8 8.4
2015-Jul-03 22:34N 31°09' W 117°50'8 7.8
2015-Jul-03 21:33N 31°01' W 117°48'5 4.7
2015-Jul-03 20:33N 30°57' W 117°48'0 0.4
2015-Jul-03 19:33N 30°57' W 117°48'1 0.5
2015-Jul-03 18:33N 30°57' W 117°49'1 0.6
2015-Jul-03 17:28N 30°57' W 117°49'1 0.8
2015-Jul-03 16:33N 30°57' W 117°50'1 0.7
2015-Jul-03 15:33N 30°57' W 117°51'1 0.7
2015-Jul-03 14:31N 30°56' W 117°51'0 0.5
2015-Jul-03 13:33N 30°56' W 117°52'0 0.4
2015-Jul-03 12:33N 30°55' W 117°52'0 0.4
2015-Jul-03 11:33N 30°55' W 117°52'0 0.5
2015-Jul-03 10:33N 30°55' W 117°53'0 0.4
2015-Jul-03 09:33N 30°55' W 117°53'0 0.3
2015-Jul-03 08:33N 30°54' W 117°53'0 0.1
2015-Jul-03 07:31N 30°54' W 117°53'0 0.2
2015-Jul-03 06:33N 30°54' W 117°54'0 0.3
2015-Jul-03 05:33N 30°54' W 117°54'0 0.4
2015-Jul-03 04:33N 30°54' W 117°54'0 0.3
2015-Jul-03 03:33N 30°54' W 117°55'0 0.2
2015-Jul-03 02:33N 30°54' W 117°55'0 0.2
2015-Jul-03 01:34N 30°54' W 117°55'0 0.2
2015-Jul-03 00:33N 30°54' W 117°55'0 0.2
2015-Jul-02 23:30N 30°54' W 117°55'0 0.2
2015-Jul-02 22:33N 30°54' W 117°55'0 0.2
2015-Jul-02 21:33N 30°54' W 117°56'0 0.3
2015-Jul-02 20:33N 30°54' W 117°56'0 0.3
2015-Jul-02 19:33N 30°54' W 117°56'0 0.4
2015-Jul-02 18:27N 30°54' W 117°57'0 0.4
2015-Jul-02 17:33N 30°54' W 117°57'1 0.3
2015-Jul-02 15:17N 30°53' W 117°58'0 0.4
2015-Jul-02 14:26N 30°53' W 117°58'0 0.4
2015-Jul-02 13:33N 30°53' W 117°58'0 0.3
2015-Jul-02 12:31N 30°53' W 117°59'0 0.3
2015-Jul-02 11:33N 30°52' W 117°59'0 0.2
2015-Jul-02 10:18N 30°52' W 117°59'0 0.1
2015-Jul-02 09:33N 30°52' W 117°59'0 0.2
2015-Jul-02 08:34N 30°52' W 117°60'0 0.2
2015-Jul-02 07:31N 30°52' W 117°60'0 0.4
2015-Jul-02 06:29N 30°52' W 118°00'0 0.3
2015-Jul-02 05:33N 30°52' W 118°01'0 0.4
2015-Jul-02 04:31N 30°52' W 118°01'1 0.3
2015-Jul-02 02:33N 30°52' W 118°02'0 0.3
2015-Jul-02 01:27N 30°51' W 118°02'0 0.2
2015-Jul-02 00:33N 30°51' W 118°02'0 0.2
2015-Jul-01 23:33N 30°51' W 118°02'0 0.2
2015-Jul-01 22:30N 30°51' W 118°02'0 0.2
2015-Jul-01 21:33N 30°51' W 118°02'0 0.3
2015-Jul-01 20:33N 30°51' W 118°03'0 0.3
2015-Jul-01 19:32N 30°51' W 118°03'0 0.4
2015-Jul-01 18:32N 30°50' W 118°03'1 0.3
2015-Jul-01 16:31N 30°50' W 118°04'0 0.3
2015-Jul-01 15:33N 30°50' W 118°04'0 0.3
2015-Jul-01 14:33N 30°50' W 118°05'0 0.3
2015-Jul-01 13:33N 30°50' W 118°05'0 0.4
2015-Jul-01 12:33N 30°50' W 118°05'1 0.5
2015-Jul-01 11:33N 30°50' W 118°06'0 0.5
2015-Jul-01 10:33N 30°50' W 118°07'0 0.5
2015-Jul-01 09:33N 30°50' W 118°07'0 0.4
2015-Jul-01 08:33N 30°50' W 118°08'0 0.5
2015-Jul-01 07:34N 30°50' W 118°08'0 0.4
2015-Jul-01 06:33N 30°50' W 118°09'1 0.6
2015-Jul-01 05:33N 30°50' W 118°09'0 0.5
2015-Jul-01 04:33N 30°49' W 118°10'0 0.3
2015-Jul-01 03:33N 30°49' W 118°10'0 0.1
2015-Jul-01 02:33N 30°49' W 118°10'0 0.2
2015-Jul-01 01:16N 30°49' W 118°10'0 0.3
2015-Jul-01 00:33N 30°50' W 118°10'0 0.3
2015-Jun-30 23:33N 30°50' W 118°10'0 0.2
2015-Jun-30 22:33N 30°50' W 118°11'0 0.2
2015-Jun-30 21:33N 30°50' W 118°11'0 0.2
2015-Jun-30 20:33N 30°50' W 118°11'0 0.4
2015-Jun-30 19:33N 30°50' W 118°12'0 0.4
2015-Jun-30 18:33N 30°50' W 118°12'0 0.3
2015-Jun-30 17:33N 30°50' W 118°12'0 0.3
2015-Jun-30 16:32N 30°50' W 118°13'0 0.3
2015-Jun-30 15:33N 30°50' W 118°13'0 0.4
2015-Jun-30 14:33N 30°51' W 118°13'0 0.4
2015-Jun-30 13:33N 30°51' W 118°14'1 0.5
2015-Jun-30 12:33N 30°51' W 118°14'0 0.5
2015-Jun-30 11:33N 30°51' W 118°15'0 0.4
2015-Jun-30 10:33N 30°51' W 118°15'0 0.4
2015-Jun-30 09:33N 30°52' W 118°16'0 0.4
2015-Jun-30 08:33N 30°52' W 118°16'0 0.3
2015-Jun-30 07:33N 30°52' W 118°16'0 0.3
2015-Jun-30 06:33N 30°52' W 118°17'0 0.3
2015-Jun-30 05:33N 30°52' W 118°17'0 0.3
2015-Jun-30 04:33N 30°52' W 118°17'0 0.3
2015-Jun-30 03:33N 30°53' W 118°18'1 0.5
2015-Jun-30 02:33N 30°53' W 118°18'1 0.6
2015-Jun-30 01:33N 30°53' W 118°18'1 0.9
2015-Jun-30 00:33N 30°54' W 118°19'1 1.0
2015-Jun-29 23:34N 30°55' W 118°20'1 0.7
2015-Jun-29 22:33N 30°55' W 118°21'6 5.7
2015-Jun-29 21:29N 30°49' W 118°20'1212.7
2015-Jun-29 20:33N 30°37' W 118°19'1412.9
2015-Jun-29 19:28N 30°23' W 118°17'1213.0
2015-Jun-29 18:32N 30°11' W 118°16'1313.0
2015-Jun-29 17:33N 29°58' W 118°15'1312.9
2015-Jun-29 16:33N 29°45' W 118°14'6 6.0
2015-Jun-29 15:29N 29°39' W 118°11'1 1.2
2015-Jun-29 14:33N 29°40' W 118°11'2 1.2
2015-Jun-29 12:32N 29°43' W 118°11'1 1.2
2015-Jun-29 11:32N 29°44' W 118°11'3 1.3
2015-Jun-29 09:32N 29°47' W 118°10'1 1.4
2015-Jun-29 08:30N 29°48' W 118°10'1 1.4
2015-Jun-29 07:33N 29°49' W 118°10'1 1.3
2015-Jun-29 06:28N 29°51' W 118°10'1 1.3
2015-Jun-29 05:33N 29°52' W 118°10'1 1.3
2015-Jun-29 04:33N 29°53' W 118°10'2 1.3
2015-Jun-29 03:13N 29°55' W 118°11'1 1.3
2015-Jun-29 02:30N 29°56' W 118°11'1 1.3
2015-Jun-29 01:33N 29°57' W 118°11'1 1.3
2015-Jun-29 00:34N 29°58' W 118°12'1 1.3
2015-Jun-28 23:33N 29°59' W 118°12'1 1.4
2015-Jun-28 22:33N 30°01' W 118°13'1 1.3
2015-Jun-28 21:28N 30°02' W 118°13'1 1.4
2015-Jun-28 20:33N 30°03' W 118°14'1 1.4
2015-Jun-28 19:33N 30°05' W 118°15'2 1.4
2015-Jun-28 18:24N 30°06' W 118°15'1 1.3
2015-Jun-28 17:33N 30°07' W 118°16'1 1.4
2015-Jun-28 16:33N 30°08' W 118°17'1 1.4
2015-Jun-28 15:34N 30°10' W 118°17'1 1.3
2015-Jun-28 14:33N 30°11' W 118°18'1 1.2
2015-Jun-28 13:20N 30°12' W 118°18'1 1.1
2015-Jun-28 12:33N 30°13' W 118°19'1 1.1
2015-Jun-28 11:33N 30°14' W 118°19'1 1.0
2015-Jun-28 10:34N 30°15' W 118°20'1 0.9
2015-Jun-28 09:31N 30°16' W 118°20'1 0.9
2015-Jun-28 08:33N 30°17' W 118°20'1 1.0
2015-Jun-28 07:33N 30°18' W 118°20'3 1.2
2015-Jun-28 05:11N 30°20' W 118°19'1 1.4
2015-Jun-28 04:26N 30°21' W 118°19'1 1.5
2015-Jun-28 03:33N 30°23' W 118°19'2 1.5
2015-Jun-28 02:29N 30°24' W 118°19'1 1.6
2015-Jun-28 01:34N 30°26' W 118°20'1 1.4
2015-Jun-28 00:34N 30°27' W 118°20'2 1.4
2015-Jun-27 23:13N 30°29' W 118°21'1 1.4
2015-Jun-27 22:33N 30°30' W 118°21'1 1.1
2015-Jun-27 21:33N 30°31' W 118°22'1 1.1
2015-Jun-27 20:33N 30°32' W 118°22'1 0.9
2015-Jun-27 19:33N 30°32' W 118°23'1 1.0
2015-Jun-27 18:32N 30°33' W 118°23'1 1.0
2015-Jun-27 17:33N 30°34' W 118°24'1 0.9
2015-Jun-27 16:33N 30°35' W 118°24'1 0.5
2015-Jun-27 15:33N 30°36' W 118°24'0 0.4
2015-Jun-27 14:33N 30°36' W 118°24'0 0.3
2015-Jun-27 13:33N 30°36' W 118°24'0 0.2
2015-Jun-27 12:33N 30°37' W 118°24'0 0.2
2015-Jun-27 11:33N 30°37' W 118°24'0 0.4
2015-Jun-27 10:33N 30°37' W 118°24'1 0.6
2015-Jun-27 09:34N 30°37' W 118°23'1 0.7
2015-Jun-27 08:33N 30°38' W 118°23'1 0.8
2015-Jun-27 07:33N 30°39' W 118°22'1 0.9
2015-Jun-27 06:33N 30°39' W 118°22'1 1.0
2015-Jun-27 05:33N 30°40' W 118°21'1 1.0
2015-Jun-27 04:33N 30°41' W 118°21'1 1.0
2015-Jun-27 03:33N 30°42' W 118°21'1 1.0
2015-Jun-27 02:33N 30°43' W 118°21'1 0.9
2015-Jun-27 01:33N 30°44' W 118°22'1 0.8
2015-Jun-27 00:33N 30°45' W 118°22'1 0.7
2015-Jun-26 23:33N 30°46' W 118°23'1 0.6
2015-Jun-26 22:33N 30°46' W 118°23'1 0.7
2015-Jun-26 21:34N 30°46' W 118°24'1 0.6
2015-Jun-26 20:34N 30°47' W 118°24'0 0.5
2015-Jun-26 19:33N 30°47' W 118°25'1 0.6
2015-Jun-26 18:33N 30°48' W 118°25'3 2.7
2015-Jun-26 17:34N 30°50' W 118°25'1010.2
2015-Jun-26 16:33N 31°01' W 118°24'1313.1
2015-Jun-26 15:33N 31°14' W 118°24'1111.2
2015-Jun-26 14:33N 31°23' W 118°31'1010.0
2015-Jun-26 13:33N 31°31' W 118°39'4 4.1
2015-Jun-26 12:34N 31°33' W 118°43'1 1.2
2015-Jun-26 11:33N 31°33' W 118°44'1 1.1
2015-Jun-26 10:34N 31°33' W 118°45'2 1.9
2015-Jun-26 09:33N 31°34' W 118°48'1 1.1
2015-Jun-26 08:33N 31°35' W 118°48'1 1.1
2015-Jun-26 07:34N 31°36' W 118°49'2 1.7
2015-Jun-26 06:33N 31°37' W 118°51'2 2.4
2015-Jun-26 05:34N 31°39' W 118°52'2 2.0
2015-Jun-26 04:33N 31°40' W 118°54'2 1.6
2015-Jun-26 03:34N 31°41' W 118°55'2 1.6
2015-Jun-26 02:33N 31°42' W 118°57'1 1.2
2015-Jun-26 01:34N 31°43' W 118°58'2 1.9
2015-Jun-26 00:33N 31°44' W 119°00'2 1.6
2015-Jun-25 23:34N 31°45' W 119°02'1 1.2
2015-Jun-25 22:33N 31°45' W 119°03'2 1.8
2015-Jun-25 21:33N 31°46' W 119°04'1 0.8
2015-Jun-25 20:33N 31°47' W 119°05'2 1.6
2015-Jun-25 19:33N 31°48' W 119°07'2 1.7
2015-Jun-25 18:33N 31°49' W 119°08'2 1.6
2015-Jun-25 17:32N 31°50' W 119°10'2 1.6
2015-Jun-25 16:33N 31°51' W 119°11'3 3.1
2015-Jun-25 15:26N 31°54' W 119°14'5 5.7
2015-Jun-25 14:32N 31°57' W 119°19'5 4.7
2015-Jun-25 13:32N 31°60' W 119°23'1 1.3
2015-Jun-25 12:33N 31°60' W 119°24'2 2.3
2015-Jun-25 11:33N 32°01' W 119°27'2 2.0
2015-Jun-25 10:33N 32°02' W 119°28'1 1.2
2015-Jun-25 09:33N 32°03' W 119°29'1 1.4
2015-Jun-25 08:33N 32°05' W 119°29'1 1.3
2015-Jun-25 07:33N 32°06' W 119°30'1 0.9
2015-Jun-25 06:33N 32°07' W 119°30'5 4.6
2015-Jun-25 05:34N 32°02' W 119°31'1010.1
2015-Jun-25 04:32N 32°03' W 119°19'1211.9
2015-Jun-25 03:33N 32°07' W 119°06'  
Track history (hours):
 
Tides and Currents Weather Stations Pressure Air Temp Water Temp Dewpoint Dewpoint Depression Visibility Wind Speed Wind Dir Waves Ship Positions

Oceanis

Last reported at 2015-Jul-05 02:33 UTC. Time now 2015-Jul-05 02:38 UTC.
Position N 33°42' W 118°10'.

Length 330 m; draft 16.1 m.

Type: Tanker. MMSI: 241089000.

Date/timePositionNaut miles runAvg speedWind from/ knotsBaromVisibWave heightAir tempDewpointWater temp
2015-Jul-05 02:33N 33°42' W 118°10'3 3.3
2015-Jul-05 01:32N 33°41' W 118°06'0 0.1
2015-Jul-05 00:32N 33°41' W 118°06'0 0.0
2015-Jul-04 23:32N 33°41' W 118°06'0 0.0
2015-Jul-04 22:32N 33°41' W 118°06'0 0.0
2015-Jul-04 21:32N 33°41' W 118°06'0 0.0
2015-Jul-04 20:32N 33°41' W 118°06'0 0.1
2015-Jul-04 19:29N 33°41' W 118°06'0 0.1
2015-Jul-04 18:32N 33°41' W 118°06'0 0.1
2015-Jul-04 17:32N 33°41' W 118°06'0 0.1
2015-Jul-04 16:32N 33°41' W 118°06'0 0.1
2015-Jul-04 15:32N 33°41' W 118°06'0 0.3
2015-Jul-04 14:34N 33°41' W 118°07'4 3.5
2015-Jul-04 13:34N 33°37' W 118°08'6 6.0
2015-Jul-04 12:34N 33°31' W 118°08'1211.7
2015-Jul-04 11:33N 33°20' W 118°03'1211.5
2015-Jul-04 10:33N 33°09' W 117°59'1211.6
2015-Jul-04 09:34N 32°58' W 117°55'1111.3
2015-Jul-04 08:34N 32°47' W 117°52'1211.8
2015-Jul-04 07:34N 32°36' W 117°49'1212.0
2015-Jul-04 06:33N 32°24' W 117°50'1111.5
2015-Jul-04 05:34N 32°12' W 117°51'1111.3
2015-Jul-04 04:33N 32°01' W 117°52'1110.9
2015-Jul-04 03:34N 31°50' W 117°53'1110.8
2015-Jul-04 02:33N 31°39' W 117°54'1111.1
2015-Jul-04 01:33N 31°28' W 117°55'1110.6
2015-Jul-04 00:34N 31°18' W 117°54'3 3.0
2015-Jul-03 23:33N 31°18' W 117°50'8 8.4
2015-Jul-03 22:34N 31°09' W 117°50'8 7.8
2015-Jul-03 21:33N 31°01' W 117°48'5 4.7
2015-Jul-03 20:33N 30°57' W 117°48'0 0.4
2015-Jul-03 19:33N 30°57' W 117°48'1 0.5
2015-Jul-03 18:33N 30°57' W 117°49'1 0.6
2015-Jul-03 17:28N 30°57' W 117°49'1 0.8
2015-Jul-03 16:33N 30°57' W 117°50'1 0.7
2015-Jul-03 15:33N 30°57' W 117°51'1 0.7
2015-Jul-03 14:31N 30°56' W 117°51'0 0.5
2015-Jul-03 13:33N 30°56' W 117°52'0 0.4
2015-Jul-03 12:33N 30°55' W 117°52'0 0.4
2015-Jul-03 11:33N 30°55' W 117°52'0 0.5
2015-Jul-03 10:33N 30°55' W 117°53'0 0.4
2015-Jul-03 09:33N 30°55' W 117°53'0 0.3
2015-Jul-03 08:33N 30°54' W 117°53'0 0.1
2015-Jul-03 07:31N 30°54' W 117°53'0 0.2
2015-Jul-03 06:33N 30°54' W 117°54'0 0.3
2015-Jul-03 05:33N 30°54' W 117°54'0 0.4
2015-Jul-03 04:33N 30°54' W 117°54'0 0.3
2015-Jul-03 03:33N 30°54' W 117°55'0 0.2
2015-Jul-03 02:33N 30°54' W 117°55'0 0.2
2015-Jul-03 01:34N 30°54' W 117°55'0 0.2
2015-Jul-03 00:33N 30°54' W 117°55'0 0.2
2015-Jul-02 23:30N 30°54' W 117°55'0 0.2
2015-Jul-02 22:33N 30°54' W 117°55'0 0.2
2015-Jul-02 21:33N 30°54' W 117°56'0 0.3
2015-Jul-02 20:33N 30°54' W 117°56'0 0.3
2015-Jul-02 19:33N 30°54' W 117°56'0 0.4
2015-Jul-02 18:27N 30°54' W 117°57'0 0.4
2015-Jul-02 17:33N 30°54' W 117°57'1 0.3
2015-Jul-02 15:17N 30°53' W 117°58'0 0.4
2015-Jul-02 14:26N 30°53' W 117°58'0 0.4
2015-Jul-02 13:33N 30°53' W 117°58'0 0.3
2015-Jul-02 12:31N 30°53' W 117°59'0 0.3
2015-Jul-02 11:33N 30°52' W 117°59'0 0.2
2015-Jul-02 10:18N 30°52' W 117°59'0 0.1
2015-Jul-02 09:33N 30°52' W 117°59'0 0.2
2015-Jul-02 08:34N 30°52' W 117°60'0 0.2
2015-Jul-02 07:31N 30°52' W 117°60'0 0.4
2015-Jul-02 06:29N 30°52' W 118°00'0 0.3
2015-Jul-02 05:33N 30°52' W 118°01'0 0.4
2015-Jul-02 04:31N 30°52' W 118°01'1 0.3
2015-Jul-02 02:33N 30°52' W 118°02'0 0.3
2015-Jul-02 01:27N 30°51' W 118°02'0 0.2
2015-Jul-02 00:33N 30°51' W 118°02'0 0.2
2015-Jul-01 23:33N 30°51' W 118°02'0 0.2
2015-Jul-01 22:30N 30°51' W 118°02'0 0.2
2015-Jul-01 21:33N 30°51' W 118°02'0 0.3
2015-Jul-01 20:33N 30°51' W 118°03'0 0.3
2015-Jul-01 19:32N 30°51' W 118°03'0 0.4
2015-Jul-01 18:32N 30°50' W 118°03'1 0.3
2015-Jul-01 16:31N 30°50' W 118°04'0 0.3
2015-Jul-01 15:33N 30°50' W 118°04'0 0.3
2015-Jul-01 14:33N 30°50' W 118°05'0 0.3
2015-Jul-01 13:33N 30°50' W 118°05'0 0.4
2015-Jul-01 12:33N 30°50' W 118°05'1 0.5
2015-Jul-01 11:33N 30°50' W 118°06'0 0.5
2015-Jul-01 10:33N 30°50' W 118°07'0 0.5
2015-Jul-01 09:33N 30°50' W 118°07'0 0.4
2015-Jul-01 08:33N 30°50' W 118°08'0 0.5
2015-Jul-01 07:34N 30°50' W 118°08'0 0.4
2015-Jul-01 06:33N 30°50' W 118°09'1 0.6
2015-Jul-01 05:33N 30°50' W 118°09'0 0.5
2015-Jul-01 04:33N 30°49' W 118°10'0 0.3
2015-Jul-01 03:33N 30°49' W 118°10'0 0.1
2015-Jul-01 02:33N 30°49' W 118°10'0 0.2
2015-Jul-01 01:16N 30°49' W 118°10'0 0.3
2015-Jul-01 00:33N 30°50' W 118°10'0 0.3
2015-Jun-30 23:33N 30°50' W 118°10'0 0.2
2015-Jun-30 22:33N 30°50' W 118°11'0 0.2
2015-Jun-30 21:33N 30°50' W 118°11'0 0.2
2015-Jun-30 20:33N 30°50' W 118°11'0 0.4
2015-Jun-30 19:33N 30°50' W 118°12'0 0.4
2015-Jun-30 18:33N 30°50' W 118°12'0 0.3
2015-Jun-30 17:33N 30°50' W 118°12'0 0.3
2015-Jun-30 16:32N 30°50' W 118°13'0 0.3
2015-Jun-30 15:33N 30°50' W 118°13'0 0.4
2015-Jun-30 14:33N 30°51' W 118°13'0 0.4
2015-Jun-30 13:33N 30°51' W 118°14'1 0.5
2015-Jun-30 12:33N 30°51' W 118°14'0 0.5
2015-Jun-30 11:33N 30°51' W 118°15'0 0.4
2015-Jun-30 10:33N 30°51' W 118°15'0 0.4
2015-Jun-30 09:33N 30°52' W 118°16'0 0.4
2015-Jun-30 08:33N 30°52' W 118°16'0 0.3
2015-Jun-30 07:33N 30°52' W 118°16'0 0.3
2015-Jun-30 06:33N 30°52' W 118°17'0 0.3
2015-Jun-30 05:33N 30°52' W 118°17'0 0.3
2015-Jun-30 04:33N 30°52' W 118°17'0 0.3
2015-Jun-30 03:33N 30°53' W 118°18'1 0.5
2015-Jun-30 02:33N 30°53' W 118°18'1 0.6
2015-Jun-30 01:33N 30°53' W 118°18'1 0.9
2015-Jun-30 00:33N 30°54' W 118°19'1 1.0
2015-Jun-29 23:34N 30°55' W 118°20'1 0.7
2015-Jun-29 22:33N 30°55' W 118°21'6 5.7
2015-Jun-29 21:29N 30°49' W 118°20'1212.7
2015-Jun-29 20:33N 30°37' W 118°19'1412.9
2015-Jun-29 19:28N 30°23' W 118°17'1213.0
2015-Jun-29 18:32N 30°11' W 118°16'1313.0
2015-Jun-29 17:33N 29°58' W 118°15'1312.9
2015-Jun-29 16:33N 29°45' W 118°14'6 6.0
2015-Jun-29 15:29N 29°39' W 118°11'1 1.2
2015-Jun-29 14:33N 29°40' W 118°11'2 1.2
2015-Jun-29 12:32N 29°43' W 118°11'1 1.2
2015-Jun-29 11:32N 29°44' W 118°11'3 1.3
2015-Jun-29 09:32N 29°47' W 118°10'1 1.4
2015-Jun-29 08:30N 29°48' W 118°10'1 1.4
2015-Jun-29 07:33N 29°49' W 118°10'1 1.3
2015-Jun-29 06:28N 29°51' W 118°10'1 1.3
2015-Jun-29 05:33N 29°52' W 118°10'1 1.3
2015-Jun-29 04:33N 29°53' W 118°10'2 1.3
2015-Jun-29 03:13N 29°55' W 118°11'1 1.3
2015-Jun-29 02:30N 29°56' W 118°11'1 1.3
2015-Jun-29 01:33N 29°57' W 118°11'1 1.3
2015-Jun-29 00:34N 29°58' W 118°12'1 1.3
2015-Jun-28 23:33N 29°59' W 118°12'1 1.4
2015-Jun-28 22:33N 30°01' W 118°13'1 1.3
2015-Jun-28 21:28N 30°02' W 118°13'1 1.4
2015-Jun-28 20:33N 30°03' W 118°14'1 1.4
2015-Jun-28 19:33N 30°05' W 118°15'2 1.4
2015-Jun-28 18:24N 30°06' W 118°15'1 1.3
2015-Jun-28 17:33N 30°07' W 118°16'1 1.4
2015-Jun-28 16:33N 30°08' W 118°17'1 1.4
2015-Jun-28 15:34N 30°10' W 118°17'1 1.3
2015-Jun-28 14:33N 30°11' W 118°18'1 1.2
2015-Jun-28 13:20N 30°12' W 118°18'1 1.1
2015-Jun-28 12:33N 30°13' W 118°19'1 1.1
2015-Jun-28 11:33N 30°14' W 118°19'1 1.0
2015-Jun-28 10:34N 30°15' W 118°20'1 0.9
2015-Jun-28 09:31N 30°16' W 118°20'1 0.9
2015-Jun-28 08:33N 30°17' W 118°20'1 1.0
2015-Jun-28 07:33N 30°18' W 118°20'3 1.2
2015-Jun-28 05:11N 30°20' W 118°19'1 1.4
2015-Jun-28 04:26N 30°21' W 118°19'1 1.5
2015-Jun-28 03:33N 30°23' W 118°19'2 1.5
2015-Jun-28 02:29N 30°24' W 118°19'1 1.6
2015-Jun-28 01:34N 30°26' W 118°20'1 1.4
2015-Jun-28 00:34N 30°27' W 118°20'2 1.4
2015-Jun-27 23:13N 30°29' W 118°21'1 1.4
2015-Jun-27 22:33N 30°30' W 118°21'1 1.1
2015-Jun-27 21:33N 30°31' W 118°22'1 1.1
2015-Jun-27 20:33N 30°32' W 118°22'1 0.9
2015-Jun-27 19:33N 30°32' W 118°23'1 1.0
2015-Jun-27 18:32N 30°33' W 118°23'1 1.0
2015-Jun-27 17:33N 30°34' W 118°24'1 0.9
2015-Jun-27 16:33N 30°35' W 118°24'1 0.5
2015-Jun-27 15:33N 30°36' W 118°24'0 0.4
2015-Jun-27 14:33N 30°36' W 118°24'0 0.3
2015-Jun-27 13:33N 30°36' W 118°24'0 0.2
2015-Jun-27 12:33N 30°37' W 118°24'0 0.2
2015-Jun-27 11:33N 30°37' W 118°24'0 0.4
2015-Jun-27 10:33N 30°37' W 118°24'1 0.6
2015-Jun-27 09:34N 30°37' W 118°23'1 0.7
2015-Jun-27 08:33N 30°38' W 118°23'1 0.8
2015-Jun-27 07:33N 30°39' W 118°22'1 0.9
2015-Jun-27 06:33N 30°39' W 118°22'1 1.0
2015-Jun-27 05:33N 30°40' W 118°21'1 1.0
2015-Jun-27 04:33N 30°41' W 118°21'1 1.0
2015-Jun-27 03:33N 30°42' W 118°21'1 1.0
2015-Jun-27 02:33N 30°43' W 118°21'1 0.9
2015-Jun-27 01:33N 30°44' W 118°22'1 0.8
2015-Jun-27 00:33N 30°45' W 118°22'1 0.7
2015-Jun-26 23:33N 30°46' W 118°23'1 0.6
2015-Jun-26 22:33N 30°46' W 118°23'1 0.7
2015-Jun-26 21:34N 30°46' W 118°24'1 0.6
2015-Jun-26 20:34N 30°47' W 118°24'0 0.5
2015-Jun-26 19:33N 30°47' W 118°25'1 0.6
2015-Jun-26 18:33N 30°48' W 118°25'3 2.7
2015-Jun-26 17:34N 30°50' W 118°25'1010.2
2015-Jun-26 16:33N 31°01' W 118°24'1313.1
2015-Jun-26 15:33N 31°14' W 118°24'1111.2
2015-Jun-26 14:33N 31°23' W 118°31'1010.0
2015-Jun-26 13:33N 31°31' W 118°39'4 4.1
2015-Jun-26 12:34N 31°33' W 118°43'1 1.2
2015-Jun-26 11:33N 31°33' W 118°44'1 1.1
2015-Jun-26 10:34N 31°33' W 118°45'2 1.9
2015-Jun-26 09:33N 31°34' W 118°48'1 1.1
2015-Jun-26 08:33N 31°35' W 118°48'1 1.1
2015-Jun-26 07:34N 31°36' W 118°49'2 1.7
2015-Jun-26 06:33N 31°37' W 118°51'2 2.4
2015-Jun-26 05:34N 31°39' W 118°52'2 2.0
2015-Jun-26 04:33N 31°40' W 118°54'2 1.6
2015-Jun-26 03:34N 31°41' W 118°55'2 1.6
2015-Jun-26 02:33N 31°42' W 118°57'1 1.2
2015-Jun-26 01:34N 31°43' W 118°58'2 1.9
2015-Jun-26 00:33N 31°44' W 119°00'2 1.6
2015-Jun-25 23:34N 31°45' W 119°02'1 1.2
2015-Jun-25 22:33N 31°45' W 119°03'2 1.8
2015-Jun-25 21:33N 31°46' W 119°04'1 0.8
2015-Jun-25 20:33N 31°47' W 119°05'2 1.6
2015-Jun-25 19:33N 31°48' W 119°07'2 1.7
2015-Jun-25 18:33N 31°49' W 119°08'2 1.6
2015-Jun-25 17:32N 31°50' W 119°10'2 1.6
2015-Jun-25 16:33N 31°51' W 119°11'3 3.1
2015-Jun-25 15:26N 31°54' W 119°14'5 5.7
2015-Jun-25 14:32N 31°57' W 119°19'5 4.7
2015-Jun-25 13:32N 31°60' W 119°23'1 1.3
2015-Jun-25 12:33N 31°60' W 119°24'2 2.3
2015-Jun-25 11:33N 32°01' W 119°27'2 2.0
2015-Jun-25 10:33N 32°02' W 119°28'1 1.2
2015-Jun-25 09:33N 32°03' W 119°29'1 1.4
2015-Jun-25 08:33N 32°05' W 119°29'1 1.3
2015-Jun-25 07:33N 32°06' W 119°30'1 0.9
2015-Jun-25 06:33N 32°07' W 119°30'5 4.6
2015-Jun-25 05:34N 32°02' W 119°31'1010.1
2015-Jun-25 04:32N 32°03' W 119°19'1211.9
2015-Jun-25 03:33N 32°07' W 119°06'  

Dump ship's entire track history